createdAt,value
2019-05-30T00:01:29.759Z,3.52
2019-05-30T00:04:36.491Z,3.98
2019-05-30T00:07:42.912Z,3.52
2019-05-30T00:10:49.448Z,4.05
2019-05-30T00:13:56.689Z,3.90
2019-05-30T00:17:03.282Z,3.05
2019-05-30T00:20:09.924Z,5.15
2019-05-30T00:23:16.384Z,3.15
2019-05-30T00:26:22.833Z,3.85
2019-05-30T00:29:29.385Z,3.20
2019-05-30T00:32:36.081Z,3.05
2019-05-30T00:35:42.644Z,3.87
2019-05-30T00:38:49.201Z,2.83
2019-05-30T00:41:56.062Z,2.62
2019-05-30T00:45:11.235Z,2.52
2019-05-30T00:48:10.911Z,4.03
2019-05-30T00:51:17.631Z,3.08
2019-05-30T00:54:24.076Z,3.27
2019-05-30T00:57:30.484Z,2.98
2019-05-30T01:00:43.249Z,3.33
2019-05-30T01:03:45.416Z,2.83
2019-05-30T01:06:52.445Z,2.90
2019-05-30T01:09:59.184Z,2.70
2019-05-30T01:13:07.266Z,3.58
2019-05-30T01:16:13.954Z,3.00
2019-05-30T01:19:20.703Z,2.92
2019-05-30T01:22:27.100Z,3.30
2019-05-30T01:25:54.025Z,3.47
2019-05-30T01:29:01.451Z,4.58
2019-05-30T01:32:26.117Z,3.40
2019-05-30T01:35:33.005Z,4.25
2019-05-30T01:38:39.553Z,2.50
2019-05-30T01:41:46.102Z,4.42
2019-05-30T01:44:53.225Z,2.37
2019-05-30T01:48:00.060Z,2.92
2019-05-30T01:51:06.920Z,3.12
2019-05-30T01:54:13.457Z,2.90
2019-05-30T01:57:19.962Z,2.92
2019-05-30T02:00:38.437Z,3.47
2019-05-30T02:03:45.108Z,2.50
2019-05-30T02:06:51.564Z,2.98
2019-05-30T02:09:59.172Z,2.77
2019-05-30T02:13:05.970Z,3.33
2019-05-30T02:16:12.508Z,3.95
2019-05-30T02:19:19.040Z,2.87
2019-05-30T02:22:25.552Z,4.92
2019-05-30T02:25:32.269Z,3.55
2019-05-30T02:28:38.688Z,2.90
2019-05-30T02:31:45.215Z,2.45
2019-05-30T02:34:52.787Z,4.65
2019-05-30T02:38:00.857Z,4.03
2019-05-30T02:41:08.269Z,3.50
2019-05-30T02:44:15.762Z,2.90
2019-05-30T02:47:22.715Z,3.10
2019-05-30T02:50:29.383Z,3.00
2019-05-30T02:53:36.062Z,3.25
2019-05-30T02:56:42.641Z,2.70
2019-05-30T02:59:49.236Z,2.60
2019-05-30T03:02:55.696Z,3.75
2019-05-30T03:06:03.877Z,3.08
2019-05-30T03:09:12.931Z,2.85
2019-05-30T03:12:20.959Z,3.02
2019-05-30T03:15:28.460Z,2.62
2019-05-30T03:18:35.116Z,2.80
2019-05-30T03:21:41.748Z,4.28
2019-05-30T03:24:48.328Z,3.08
2019-05-30T03:27:54.776Z,2.95
2019-05-30T03:31:05.697Z,2.90
2019-05-30T03:34:22.836Z,2.60
2019-05-30T03:37:28.566Z,3.62
2019-05-30T03:40:29.618Z,3.02
2019-05-30T03:43:36.100Z,2.45
2019-05-30T03:46:49.236Z,2.58
2019-05-30T03:49:57.900Z,3.80
2019-05-30T03:53:05.292Z,2.30
2019-05-30T03:56:19.320Z,2.50
2019-05-30T03:59:35.492Z,2.83
2019-05-30T04:03:00.365Z,2.60
2019-05-30T04:06:16.150Z,3.47
2019-05-30T04:09:25.471Z,2.83
2019-05-30T04:13:26.270Z,2.58
2019-05-30T04:16:34.517Z,3.20
2019-05-30T04:19:41.035Z,3.33
2019-05-30T04:22:47.585Z,3.25
2019-05-30T04:25:54.087Z,2.83
2019-05-30T04:29:00.489Z,2.90
2019-05-30T04:32:08.425Z,2.58
2019-05-30T04:35:16.865Z,2.98
2019-05-30T04:38:23.436Z,2.70
2019-05-30T04:41:29.889Z,3.05
2019-05-30T04:44:36.314Z,2.83
2019-05-30T04:47:42.823Z,2.92
2019-05-30T04:50:49.492Z,2.70
2019-05-30T04:53:56.063Z,2.75
2019-05-30T04:57:02.577Z,3.50
2019-05-30T05:00:13.015Z,2.40
2019-05-30T05:03:41.655Z,2.42
2019-05-30T05:06:27.731Z,2.83
2019-05-30T05:09:34.681Z,2.22
2019-05-30T05:12:41.314Z,3.05
2019-05-30T05:15:47.808Z,2.40
2019-05-30T05:18:54.280Z,3.08
2019-05-30T05:22:00.738Z,2.05
2019-05-30T05:25:07.625Z,2.62
2019-05-30T05:28:14.063Z,2.15
2019-05-30T05:31:20.486Z,2.20
2019-05-30T05:34:26.927Z,2.55
2019-05-30T05:37:34.759Z,2.58
2019-05-30T05:40:41.259Z,3.35
2019-05-30T05:43:47.742Z,3.25
2019-05-30T05:46:54.115Z,2.05
2019-05-30T05:50:00.546Z,2.52
2019-05-30T05:53:07.089Z,2.20
2019-05-30T05:56:13.646Z,2.67
2019-05-30T05:59:20.993Z,2.50
2019-05-30T06:02:27.547Z,3.45
2019-05-30T06:05:35.651Z,2.30
2019-05-30T06:08:42.085Z,2.55
2019-05-30T06:11:49.204Z,2.65
2019-05-30T06:14:56.259Z,2.30
2019-05-30T06:18:02.764Z,2.42
2019-05-30T06:21:09.251Z,2.25
2019-05-30T06:24:15.679Z,2.83
2019-05-30T06:27:24.014Z,2.25
2019-05-30T06:30:30.488Z,2.30
2019-05-30T06:33:37.078Z,2.72
2019-05-30T06:36:43.499Z,3.22
2019-05-30T06:39:51.086Z,2.40
2019-05-30T06:42:57.598Z,2.00
2019-05-30T06:46:04.072Z,2.75
2019-05-30T06:49:10.518Z,2.20
2019-05-30T06:52:17.619Z,1.70
2019-05-30T06:55:25.145Z,2.40
2019-05-30T06:58:47.952Z,2.40
2019-05-30T07:01:42.644Z,2.10
2019-05-30T07:04:52.141Z,1.90
2019-05-30T07:07:57.219Z,2.77
2019-05-30T07:11:03.888Z,2.02
2019-05-30T07:14:11.182Z,1.90
2019-05-30T07:17:17.791Z,2.47
2019-05-30T07:20:25.516Z,2.15
2019-05-30T07:23:34.019Z,2.02
2019-05-30T07:26:40.611Z,1.82
2019-05-30T07:29:47.115Z,1.80
2019-05-30T07:32:53.636Z,2.77
2019-05-30T07:36:00.122Z,2.15
2019-05-30T07:39:08.956Z,1.80
2019-05-30T07:42:15.558Z,1.85
2019-05-30T07:45:24.762Z,3.45
2019-05-30T07:48:34.319Z,1.92
2019-05-30T07:51:41.084Z,2.15
2019-05-30T07:54:47.583Z,1.85
2019-05-30T07:57:54.118Z,2.02
2019-05-30T08:01:00.678Z,2.33
2019-05-30T08:04:07.336Z,1.98
2019-05-30T08:07:13.858Z,2.05
2019-05-30T08:10:21.269Z,2.27
2019-05-30T08:13:28.788Z,1.70
2019-05-30T08:16:35.962Z,2.75
2019-05-30T08:19:43.566Z,1.40
2019-05-30T08:22:50.112Z,2.20
2019-05-30T08:25:56.620Z,2.10
2019-05-30T08:29:03.225Z,1.90
2019-05-30T08:32:10.460Z,2.00
2019-05-30T08:35:18.310Z,2.55
2019-05-30T08:38:24.841Z,3.05
2019-05-30T08:41:33.214Z,1.70
2019-05-30T08:44:40.152Z,1.60
2019-05-30T08:47:46.820Z,1.92
2019-05-30T08:50:53.304Z,2.15
2019-05-30T08:53:59.977Z,1.70
2019-05-30T08:57:06.603Z,1.75
2019-05-30T09:00:15.537Z,2.05
2019-05-30T09:03:22.076Z,2.15
2019-05-30T09:06:30.564Z,2.58
2019-05-30T09:09:40.461Z,2.15
2019-05-30T09:12:49.726Z,1.72
2019-05-30T09:15:56.340Z,2.30
2019-05-30T09:19:03.028Z,1.92
2019-05-30T09:22:10.711Z,2.02
2019-05-30T09:25:18.085Z,1.85
2019-05-30T09:28:24.761Z,2.00
2019-05-30T09:31:33.530Z,1.90
2019-05-30T09:34:42.023Z,1.72
2019-05-30T09:37:49.521Z,1.77
2019-05-30T09:40:56.127Z,2.15
2019-05-30T09:44:02.716Z,2.85
2019-05-30T09:47:09.212Z,2.08
2019-05-30T09:50:17.721Z,2.40
2019-05-30T09:53:24.240Z,2.25
2019-05-30T09:56:30.815Z,2.00
2019-05-30T09:59:40.144Z,2.50
2019-05-30T10:02:48.640Z,1.90
2019-05-30T10:05:55.658Z,2.00
2019-05-30T10:09:02.205Z,1.95
2019-05-30T10:12:10.412Z,2.00
2019-05-30T10:15:19.060Z,2.00
2019-05-30T10:18:25.623Z,2.80
2019-05-30T10:21:35.326Z,1.98
2019-05-30T10:24:43.071Z,2.25
2019-05-30T10:27:51.026Z,2.00
2019-05-30T10:30:59.419Z,1.50
2019-05-30T10:34:07.493Z,2.27
2019-05-30T10:37:15.118Z,1.87
2019-05-30T10:40:21.899Z,1.90
2019-05-30T10:43:28.734Z,2.02
2019-05-30T10:46:35.575Z,2.45
2019-05-30T10:49:42.391Z,1.85
2019-05-30T10:52:49.494Z,1.70
2019-05-30T10:55:56.533Z,1.70
2019-05-30T10:59:03.290Z,2.47
2019-05-30T11:02:10.001Z,2.05
2019-05-30T11:10:13.604Z,2.37
2019-05-30T11:13:20.395Z,2.12
2019-05-30T11:16:26.886Z,2.30
2019-05-30T11:19:35.605Z,2.25
2019-05-30T11:22:42.076Z,3.05
2019-05-30T11:25:50.220Z,1.82
2019-05-30T11:28:57.061Z,2.02
2019-05-30T11:32:03.978Z,2.47
2019-05-30T11:35:10.633Z,2.60
2019-05-30T11:38:17.010Z,1.82
2019-05-30T11:41:23.490Z,2.40
2019-05-30T11:44:29.998Z,2.33
2019-05-30T11:47:37.568Z,2.20
2019-05-30T11:50:44.089Z,1.87
2019-05-30T11:53:51.731Z,2.25
2019-05-30T11:56:58.410Z,2.08
2019-05-30T12:00:06.041Z,2.22
2019-05-30T12:03:12.667Z,2.60
2019-05-30T12:06:19.121Z,2.62
2019-05-30T12:09:25.705Z,1.80
2019-05-30T12:12:32.237Z,1.98
2019-05-30T12:15:38.705Z,2.33
2019-05-30T12:18:45.220Z,2.15
2019-05-30T12:21:51.710Z,2.35
2019-05-30T12:24:58.181Z,1.70
2019-05-30T12:28:05.824Z,2.50
2019-05-30T12:31:12.325Z,2.17
2019-05-30T12:34:19.320Z,2.70
2019-05-30T12:37:25.830Z,2.67
2019-05-30T12:40:32.443Z,1.90
2019-05-30T12:43:38.927Z,1.85
2019-05-30T12:46:45.404Z,2.60
2019-05-30T12:49:53.272Z,2.15
2019-05-30T12:53:00.371Z,3.62
2019-05-30T12:56:08.324Z,1.82
2019-05-30T12:59:14.880Z,1.70
2019-05-30T13:02:21.425Z,2.47
2019-05-30T13:05:28.081Z,3.70
2019-05-30T13:08:37.680Z,2.10
2019-05-30T13:11:44.110Z,2.05
2019-05-30T13:14:50.556Z,2.33
2019-05-30T13:17:57.320Z,2.22
2019-05-30T13:21:04.243Z,2.45
2019-05-30T13:24:10.828Z,2.25
2019-05-30T13:27:17.341Z,2.22
2019-05-30T13:30:25.468Z,2.42
2019-05-30T13:33:38.171Z,1.87
2019-05-30T13:36:42.885Z,2.10
2019-05-30T13:39:49.299Z,2.05
2019-05-30T13:42:55.770Z,2.20
2019-05-30T13:46:02.915Z,2.45
2019-05-30T13:49:09.832Z,2.05
2019-05-30T13:52:16.305Z,2.10
2019-05-30T13:55:22.860Z,1.75
2019-05-30T13:58:29.338Z,2.47
2019-05-30T14:01:36.217Z,2.33
2019-05-30T14:04:42.724Z,2.12
2019-05-30T14:07:49.173Z,2.00
2019-05-30T14:10:55.677Z,2.17
2019-05-30T14:14:02.726Z,2.40
2019-05-30T14:17:12.375Z,2.35
2019-05-30T14:20:19.059Z,1.62
2019-05-30T14:23:25.568Z,2.70
2019-05-30T14:26:32.020Z,2.40
2019-05-30T14:29:38.440Z,2.45
2019-05-30T14:32:45.096Z,2.00
2019-05-30T14:35:51.608Z,3.08
2019-05-30T14:38:59.102Z,3.47
2019-05-30T14:42:07.119Z,2.35
2019-05-30T14:45:16.798Z,2.15
2019-05-30T14:48:23.406Z,2.40
2019-05-30T14:51:30.018Z,2.70
2019-05-30T14:54:38.079Z,2.35
2019-05-30T14:57:44.519Z,1.90
2019-05-30T15:00:51.115Z,2.35
2019-05-30T15:03:58.563Z,2.00
2019-05-30T15:07:05.330Z,2.62
2019-05-30T15:10:15.233Z,1.90
2019-05-30T15:13:21.897Z,2.05
2019-05-30T15:16:28.289Z,1.90
2019-05-30T15:19:34.816Z,3.12
2019-05-30T15:22:41.277Z,2.67
2019-05-30T15:25:48.015Z,2.87
2019-05-30T15:28:54.451Z,2.45
2019-05-30T15:32:01.182Z,2.98
2019-05-30T15:35:08.801Z,2.60
2019-05-30T15:38:15.497Z,3.22
2019-05-30T15:41:22.120Z,2.58
2019-05-30T15:44:28.583Z,2.33
2019-05-30T15:47:37.191Z,2.08
2019-05-30T15:50:43.714Z,2.30
2019-05-30T15:53:50.113Z,5.40
2019-05-30T15:56:56.602Z,3.10
2019-05-30T16:00:03.096Z,3.12
2019-05-30T16:03:10.433Z,2.58
2019-05-30T16:06:17.083Z,3.50
2019-05-30T16:09:23.573Z,2.87
2019-05-30T16:12:30.117Z,2.33
2019-05-30T16:15:36.875Z,4.50
2019-05-30T16:18:43.301Z,2.92
2019-05-30T16:21:49.802Z,3.25
2019-05-30T16:24:56.455Z,4.75
2019-05-30T16:28:03.064Z,3.60
2019-05-30T16:31:09.600Z,2.02
2019-05-30T16:34:16.195Z,3.20
2019-05-30T16:37:23.828Z,3.50
2019-05-30T16:40:30.346Z,3.05
2019-05-30T16:43:36.861Z,2.15
2019-05-30T16:46:43.385Z,2.83
2019-05-30T16:49:49.894Z,2.70
2019-05-30T16:52:56.394Z,3.20
2019-05-30T16:56:03.894Z,2.70
2019-05-30T16:59:10.421Z,3.33
2019-05-30T17:02:17.046Z,3.40
2019-05-30T17:05:25.482Z,2.90
2019-05-30T17:08:35.916Z,2.80
2019-05-30T17:11:42.692Z,3.58
2019-05-30T17:14:49.391Z,12.90
2019-05-30T17:17:55.832Z,11.48
2019-05-30T17:21:02.456Z,13.68
2019-05-30T17:24:09.009Z,5.95
2019-05-30T17:27:15.457Z,25.90
2019-05-30T17:30:23.970Z,28.27
2019-05-30T17:33:30.430Z,17.87
2019-05-30T17:36:39.532Z,3.55
2019-05-30T17:39:46.359Z,3.05
2019-05-30T17:42:52.858Z,2.25
2019-05-30T17:45:59.308Z,3.35
2019-05-30T17:49:06.938Z,2.75
2019-05-30T17:52:13.320Z,3.12
2019-05-30T17:55:20.187Z,2.95
2019-05-30T17:58:27.867Z,2.98
2019-05-30T18:01:35.924Z,3.22
2019-05-30T18:04:42.512Z,3.42
2019-05-30T18:07:48.950Z,4.20
2019-05-30T18:10:55.425Z,3.75
2019-05-30T18:14:02.072Z,4.55
2019-05-30T18:17:09.420Z,2.90
2019-05-30T18:20:18.414Z,2.77
2019-05-30T18:23:25.516Z,4.60
2019-05-30T18:26:34.862Z,8.65
2019-05-30T18:29:41.378Z,5.95
2019-05-30T18:32:47.902Z,4.45
2019-05-30T18:35:54.405Z,5.25
2019-05-30T18:39:01.106Z,4.30
2019-05-30T18:42:10.612Z,4.92
2019-05-30T18:45:24.946Z,5.83
2019-05-30T18:48:31.896Z,4.50
2019-05-30T18:51:38.498Z,4.10
2019-05-30T18:54:44.945Z,10.00
2019-05-30T18:57:51.448Z,9.18
2019-05-30T19:00:57.905Z,5.87
2019-05-30T19:04:04.596Z,7.05
2019-05-30T19:07:11.215Z,8.00
2019-05-30T19:10:17.913Z,5.78
2019-05-30T19:13:25.554Z,4.75
2019-05-30T19:16:34.558Z,9.38
2019-05-30T19:19:41.217Z,7.72
2019-05-30T19:22:47.647Z,6.40
2019-05-30T19:25:54.069Z,7.58
2019-05-30T19:29:12.930Z,8.85
2019-05-30T19:32:19.369Z,8.43
2019-05-30T19:35:27.022Z,7.53
2019-05-30T19:38:37.683Z,9.90
2019-05-30T19:41:55.539Z,6.85
2019-05-30T19:44:53.278Z,7.70
2019-05-30T19:47:59.719Z,6.45
2019-05-30T19:51:06.232Z,5.55
2019-05-30T19:54:12.701Z,6.17
2019-05-30T19:57:22.011Z,5.83
2019-05-30T20:00:29.858Z,6.35
2019-05-30T20:03:43.595Z,5.40
2019-05-30T20:06:44.915Z,5.85
2019-05-30T20:10:00.798Z,5.25
2019-05-30T20:12:59.792Z,4.28
2019-05-30T20:16:06.428Z,5.80
2019-05-30T20:19:13.016Z,4.90
2019-05-30T20:22:19.488Z,5.15
2019-05-30T20:25:26.043Z,4.97
2019-05-30T20:28:34.997Z,4.97
2019-05-30T20:31:41.521Z,4.67
2019-05-30T20:34:47.935Z,4.42
2019-05-30T20:37:54.366Z,4.17
2019-05-30T20:41:00.784Z,5.58
2019-05-30T20:44:07.394Z,6.50
2019-05-30T20:47:14.049Z,5.12
2019-05-30T20:50:22.470Z,5.75
2019-05-30T20:53:28.942Z,6.03
2019-05-30T20:56:37.884Z,5.50
2019-05-30T20:59:44.368Z,5.37
2019-05-30T21:02:51.114Z,4.90
2019-05-30T21:05:59.204Z,5.08
2019-05-30T21:09:07.843Z,4.90
2019-05-30T21:12:15.802Z,4.53
2019-05-30T21:15:23.294Z,5.60
2019-05-30T21:18:29.929Z,5.00
2019-05-30T21:21:36.547Z,4.65
2019-05-30T21:24:43.362Z,5.20
2019-05-30T21:27:49.836Z,4.83
2019-05-30T21:30:56.272Z,5.20
2019-05-30T21:34:02.810Z,4.45
2019-05-30T21:37:09.390Z,5.15
2019-05-30T21:40:17.031Z,5.20
2019-05-30T21:43:23.469Z,5.00
2019-05-30T21:46:29.970Z,5.72
2019-05-30T21:49:38.794Z,4.80
2019-05-30T21:52:46.339Z,5.12
2019-05-30T21:55:53.237Z,5.45
2019-05-30T21:58:59.721Z,7.60
2019-05-30T22:02:06.716Z,5.90
2019-05-30T22:05:13.331Z,6.83
2019-05-30T22:08:19.731Z,7.20
2019-05-30T22:11:26.279Z,5.90
2019-05-30T22:14:33.208Z,5.70
2019-05-30T22:17:39.738Z,5.25
2019-05-30T22:20:46.229Z,5.60
2019-05-30T22:23:52.808Z,5.42
2019-05-30T22:26:59.269Z,4.90
2019-05-30T22:30:06.667Z,4.90
2019-05-30T22:33:14.957Z,5.47
2019-05-30T22:36:21.537Z,5.97
2019-05-30T22:39:28.015Z,5.25
2019-05-30T22:42:35.965Z,4.47
2019-05-30T22:45:44.112Z,4.45
2019-05-30T22:48:50.617Z,5.87
2019-05-30T22:51:57.477Z,5.65
2019-05-30T22:55:04.207Z,5.42
2019-05-30T22:58:10.612Z,4.53
2019-05-30T23:01:16.997Z,5.03
2019-05-30T23:04:23.455Z,4.60
2019-05-30T23:07:29.964Z,6.83
2019-05-30T23:10:38.040Z,5.97
2019-05-30T23:13:45.680Z,5.47
2019-05-30T23:16:52.351Z,6.28
2019-05-30T23:19:58.826Z,4.80
2019-05-30T23:23:05.413Z,3.87
2019-05-30T23:26:11.853Z,4.65
2019-05-30T23:29:18.362Z,4.65
2019-05-30T23:32:24.889Z,4.20
2019-05-30T23:35:31.917Z,5.20
2019-05-30T23:38:38.383Z,4.53
2019-05-30T23:41:46.384Z,3.72
2019-05-30T23:44:53.330Z,5.20
2019-05-30T23:47:59.859Z,4.83
2019-05-30T23:51:06.466Z,4.95
2019-05-30T23:54:13.961Z,4.33
2019-05-30T23:57:20.417Z,4.33
